createdAt,value
2023-02-25T00:01:07.320Z,0.84
2023-02-25T00:03:34.476Z,0.82
2023-02-25T00:06:05.744Z,0.84
2023-02-25T00:08:36.134Z,0.86
2023-02-25T00:11:04.028Z,0.85
2023-02-25T00:13:31.007Z,0.88
2023-02-25T00:16:00.936Z,0.86
2023-02-25T00:18:28.065Z,0.80
2023-02-25T00:20:55.058Z,0.84
2023-02-25T00:23:22.111Z,0.81
2023-02-25T00:25:48.711Z,0.72
2023-02-25T00:28:15.775Z,0.73
2023-02-25T00:30:45.406Z,0.72
2023-02-25T00:33:12.392Z,0.71
2023-02-25T00:35:39.810Z,0.72
2023-02-25T00:38:15.853Z,0.75
2023-02-25T00:40:43.301Z,0.80
2023-02-25T00:43:10.166Z,0.78
2023-02-25T00:45:39.737Z,0.81
2023-02-25T00:48:07.220Z,0.80
2023-02-25T00:50:34.403Z,0.83
2023-02-25T00:53:01.180Z,0.81
2023-02-25T00:55:33.767Z,0.78
2023-02-25T00:58:01.374Z,0.77
2023-02-25T01:00:28.582Z,0.73
2023-02-25T01:02:56.484Z,0.74
2023-02-25T01:05:23.190Z,0.75
2023-02-25T01:07:50.187Z,0.70
2023-02-25T01:10:17.274Z,0.72
2023-02-25T01:12:44.305Z,0.72
2023-02-25T01:15:11.379Z,0.75
2023-02-25T01:17:38.212Z,0.70
2023-02-25T01:20:11.460Z,0.75
2023-02-25T01:22:41.828Z,0.72
2023-02-25T01:25:12.111Z,0.71
2023-02-25T01:27:38.685Z,0.68
2023-02-25T01:30:06.324Z,0.70
2023-02-25T01:32:33.327Z,0.73
2023-02-25T01:35:00.254Z,0.73
2023-02-25T01:37:27.016Z,0.73
2023-02-25T01:39:54.508Z,0.71
2023-02-25T01:42:21.360Z,0.70
2023-02-25T01:45:06.864Z,0.66
2023-02-25T01:47:34.717Z,0.67
2023-02-25T01:50:02.459Z,0.66
2023-02-25T01:52:29.396Z,0.70
2023-02-25T01:54:56.480Z,0.72
2023-02-25T01:57:23.932Z,0.71
2023-02-25T01:59:50.967Z,0.71
2023-02-25T02:02:19.713Z,0.67
2023-02-25T02:04:50.270Z,0.72
2023-02-25T02:07:17.522Z,0.71
2023-02-25T02:09:56.196Z,0.72
2023-02-25T02:12:25.473Z,0.72
2023-02-25T02:14:52.211Z,0.69
2023-02-25T02:17:21.074Z,0.65
2023-02-25T02:19:53.666Z,0.65
2023-02-25T02:22:29.474Z,0.65
2023-02-25T02:24:59.531Z,0.63
2023-02-25T02:27:29.339Z,0.65
2023-02-25T02:30:00.938Z,0.63
2023-02-25T02:32:46.390Z,0.64
2023-02-25T02:35:13.143Z,0.63
2023-02-25T02:37:49.024Z,0.63
2023-02-25T02:40:15.691Z,0.59
2023-02-25T02:42:45.346Z,0.62
2023-02-25T02:45:14.090Z,0.61
2023-02-25T02:47:41.322Z,0.60
2023-02-25T02:50:09.436Z,0.60
2023-02-25T02:52:38.656Z,0.58
2023-02-25T02:55:08.507Z,0.54
2023-02-25T02:57:35.643Z,0.53
2023-02-25T03:00:17.993Z,0.51
2023-02-25T03:02:45.631Z,0.49
2023-02-25T03:05:12.933Z,0.47
2023-02-25T03:07:43.965Z,0.47
2023-02-25T03:10:11.555Z,0.45
2023-02-25T03:12:39.045Z,0.48
2023-02-25T03:15:06.204Z,0.51
2023-02-25T03:17:43.436Z,0.54
2023-02-25T03:20:21.518Z,0.59
2023-02-25T03:22:48.776Z,0.57
2023-02-25T03:25:15.420Z,0.57
2023-02-25T03:27:42.527Z,0.50
2023-02-25T03:30:12.790Z,0.38
2023-02-25T03:32:43.966Z,0.36
2023-02-25T03:35:11.271Z,0.32
2023-02-25T03:37:38.853Z,0.33
2023-02-25T03:40:11.580Z,0.25
2023-02-25T03:42:39.355Z,0.25
2023-02-25T03:45:06.210Z,0.33
2023-02-25T03:47:34.587Z,0.23
2023-02-25T03:50:03.309Z,0.20
2023-02-25T03:52:30.012Z,0.19
2023-02-25T03:54:57.639Z,0.16
2023-02-25T03:57:25.455Z,0.17
2023-02-25T03:59:56.356Z,0.12
2023-02-25T04:02:27.539Z,0.13
2023-02-25T04:04:54.410Z,0.10
2023-02-25T04:07:21.388Z,0.08
2023-02-25T04:09:47.928Z,0.08
2023-02-25T04:12:15.688Z,0.10
2023-02-25T04:14:42.307Z,0.07
2023-02-25T04:17:08.899Z,0.11
2023-02-25T04:19:35.533Z,0.13
2023-02-25T04:22:02.133Z,0.14
2023-02-25T04:24:28.762Z,0.11
2023-02-25T04:26:58.563Z,0.13
2023-02-25T04:29:25.596Z,0.12
2023-02-25T04:31:52.564Z,0.21
2023-02-25T04:34:19.630Z,0.21
2023-02-25T04:36:47.015Z,0.24
2023-02-25T04:39:14.558Z,0.21
2023-02-25T04:41:41.127Z,0.22
2023-02-25T04:44:07.986Z,0.26
2023-02-25T04:46:35.883Z,0.30
2023-02-25T04:49:02.637Z,0.38
2023-02-25T04:51:29.538Z,0.37
2023-02-25T04:53:56.284Z,0.32
2023-02-25T04:56:23.258Z,0.35
2023-02-25T04:58:50.089Z,0.37
2023-02-25T05:01:16.717Z,0.39
2023-02-25T05:03:43.562Z,0.36
2023-02-25T05:06:10.457Z,0.35
2023-02-25T05:08:37.155Z,0.38
2023-02-25T05:11:03.868Z,0.40
2023-02-25T05:13:30.591Z,0.46
2023-02-25T05:16:07.276Z,0.42
2023-02-25T05:18:36.130Z,0.43
2023-02-25T05:21:02.870Z,0.44
2023-02-25T05:23:29.458Z,0.43
2023-02-25T05:25:58.713Z,0.44
2023-02-25T05:28:25.495Z,0.43
2023-02-25T05:30:53.723Z,0.47
2023-02-25T05:33:20.639Z,0.47
2023-02-25T05:35:47.144Z,0.47
2023-02-25T05:38:13.680Z,0.43
2023-02-25T05:40:40.350Z,0.44
2023-02-25T05:43:07.047Z,0.47
2023-02-25T05:45:33.808Z,0.47
2023-02-25T05:48:00.680Z,0.45
2023-02-25T05:50:28.628Z,0.49
2023-02-25T05:52:55.569Z,0.49
2023-02-25T05:55:22.279Z,0.49
2023-02-25T05:57:49.119Z,0.50
2023-02-25T06:00:16.159Z,0.53
2023-02-25T06:02:44.588Z,0.54
2023-02-25T06:05:11.502Z,0.55
2023-02-25T06:07:38.065Z,0.53
2023-02-25T06:10:05.000Z,0.51
2023-02-25T06:12:32.295Z,0.48
2023-02-25T06:14:59.205Z,0.56
2023-02-25T06:17:25.919Z,0.50
2023-02-25T06:19:52.959Z,0.49
2023-02-25T06:22:20.072Z,0.50
2023-02-25T06:24:46.866Z,0.51
2023-02-25T06:27:14.100Z,0.53
2023-02-25T06:29:42.019Z,0.48
2023-02-25T06:32:09.466Z,0.48
2023-02-25T06:34:36.188Z,0.49
2023-02-25T06:37:02.926Z,0.53
2023-02-25T06:39:29.685Z,0.54
2023-02-25T06:41:56.453Z,0.56
2023-02-25T06:44:23.218Z,0.58
2023-02-25T06:46:51.078Z,0.55
2023-02-25T06:49:18.345Z,0.55
2023-02-25T06:51:45.112Z,0.55
2023-02-25T06:54:12.027Z,0.51
2023-02-25T06:56:39.573Z,0.54
2023-02-25T06:59:06.442Z,0.57
2023-02-25T07:01:33.366Z,0.59
2023-02-25T07:04:00.269Z,0.63
2023-02-25T07:06:27.186Z,0.72
2023-02-25T07:08:53.913Z,0.72
2023-02-25T07:11:22.529Z,0.75
2023-02-25T07:13:49.774Z,0.86
2023-02-25T07:16:18.186Z,0.88
2023-02-25T07:18:46.222Z,0.93
2023-02-25T07:21:13.192Z,0.97
2023-02-25T07:23:40.307Z,0.98
2023-02-25T07:26:10.874Z,1.06
2023-02-25T07:28:38.233Z,1.03
2023-02-25T07:31:09.724Z,1.02
2023-02-25T07:33:36.764Z,1.04
2023-02-25T07:36:05.358Z,1.11
2023-02-25T07:38:32.905Z,1.14
2023-02-25T07:41:07.222Z,1.16
2023-02-25T07:43:35.173Z,1.12
2023-02-25T07:46:02.279Z,1.06
2023-02-25T07:48:29.390Z,0.97
2023-02-25T07:50:56.485Z,0.91
2023-02-25T07:53:23.515Z,0.86
2023-02-25T07:55:50.832Z,0.84
2023-02-25T07:58:17.684Z,0.78
2023-02-25T08:00:46.023Z,0.69
2023-02-25T08:03:12.674Z,0.71
2023-02-25T08:05:39.441Z,0.73
2023-02-25T08:08:06.292Z,0.75
2023-02-25T08:10:33.093Z,0.77
2023-02-25T08:12:59.916Z,0.80
2023-02-25T08:15:26.691Z,0.79
2023-02-25T08:17:56.053Z,0.70
2023-02-25T08:20:22.815Z,0.65
2023-02-25T08:22:50.816Z,0.62
2023-02-25T08:25:17.907Z,0.66
2023-02-25T08:27:45.828Z,0.79
2023-02-25T08:30:12.890Z,0.83
2023-02-25T08:32:40.052Z,0.87
2023-02-25T08:35:06.852Z,0.88
2023-02-25T08:37:34.007Z,0.90
2023-02-25T08:40:00.869Z,0.86
2023-02-25T08:42:29.452Z,0.86
2023-02-25T08:44:56.272Z,0.82
2023-02-25T08:47:22.842Z,0.64
2023-02-25T08:49:49.713Z,0.48
2023-02-25T08:52:16.464Z,0.33
2023-02-25T08:54:43.944Z,0.03
2023-02-25T08:57:10.659Z,-0.10
2023-02-25T08:59:38.069Z,-0.15
2023-02-25T09:02:07.835Z,-0.16
2023-02-25T09:04:34.972Z,-0.03
2023-02-25T09:07:02.533Z,0.09
2023-02-25T09:09:29.375Z,0.25
2023-02-25T09:11:57.698Z,0.53
2023-02-25T09:14:24.585Z,0.58
2023-02-25T09:16:51.533Z,0.75
2023-02-25T09:19:18.691Z,0.84
2023-02-25T09:21:48.610Z,0.84
2023-02-25T09:24:15.970Z,0.90
2023-02-25T09:26:42.710Z,0.86
2023-02-25T09:29:09.380Z,1.00
2023-02-25T09:31:37.608Z,1.61
2023-02-25T09:34:06.531Z,1.80
2023-02-25T09:36:33.270Z,1.89
2023-02-25T09:39:00.284Z,1.95
2023-02-25T09:41:32.493Z,2.26
2023-02-25T09:44:13.875Z,2.68
2023-02-25T09:46:46.217Z,3.17
2023-02-25T09:49:19.516Z,3.75
2023-02-25T09:51:51.851Z,4.08
2023-02-25T09:54:24.301Z,4.06
2023-02-25T09:57:03.857Z,3.79
2023-02-25T09:59:31.746Z,3.39
2023-02-25T10:02:20.480Z,2.94
2023-02-25T10:04:53.001Z,3.87
2023-02-25T10:07:23.052Z,4.70
2023-02-25T10:09:53.092Z,5.25
2023-02-25T10:12:35.650Z,4.47
2023-02-25T10:15:06.874Z,4.08
2023-02-25T10:17:38.283Z,3.53
2023-02-25T10:20:24.302Z,3.19
2023-02-25T10:23:07.060Z,2.80
2023-02-25T10:25:35.239Z,2.45
2023-02-25T10:28:03.068Z,2.17
2023-02-25T10:36:32.957Z,1.98
2023-02-25T10:39:09.595Z,2.22
2023-02-25T10:44:17.410Z,2.90
2023-02-25T10:46:55.367Z,4.22
2023-02-25T10:58:01.272Z,8.20
2023-02-25T11:06:09.159Z,8.32
2023-02-25T11:08:37.303Z,6.65
2023-02-25T11:11:24.760Z,4.31
2023-02-25T11:19:26.648Z,2.32
2023-02-25T11:21:56.074Z,2.44
2023-02-25T11:24:29.420Z,2.59
2023-02-25T11:27:01.549Z,2.60
2023-02-25T11:29:42.386Z,2.50
2023-02-25T11:32:13.466Z,2.59
2023-02-25T11:34:46.352Z,2.53
2023-02-25T11:39:59.792Z,2.76
2023-02-25T11:42:28.010Z,2.52
2023-02-25T11:45:01.964Z,2.33
2023-02-25T11:47:34.577Z,2.21
2023-02-25T11:50:01.266Z,1.66
2023-02-25T11:52:32.016Z,1.28
2023-02-25T11:54:59.066Z,1.32
2023-02-25T11:57:34.113Z,1.24
2023-02-25T12:00:07.353Z,1.18
2023-02-25T12:02:37.060Z,1.31
2023-02-25T12:05:06.717Z,1.29
2023-02-25T12:08:13.996Z,1.20
2023-02-25T12:10:59.333Z,1.21
2023-02-25T12:13:34.203Z,1.02
2023-02-25T12:16:00.924Z,0.86
2023-02-25T12:18:27.657Z,0.75
2023-02-25T12:21:10.141Z,0.80
2023-02-25T12:24:20.136Z,1.01
2023-02-25T12:27:05.514Z,1.13
2023-02-25T12:29:32.388Z,1.39
2023-02-25T12:32:08.813Z,1.67
2023-02-25T12:34:40.427Z,2.06
2023-02-25T12:37:19.321Z,2.34
2023-02-25T12:40:05.082Z,3.17
2023-02-25T12:42:38.271Z,6.79
2023-02-25T12:45:17.146Z,10.17
2023-02-25T12:47:50.055Z,10.84
2023-02-25T12:50:19.928Z,11.74
2023-02-25T12:52:49.622Z,12.01
2023-02-25T12:55:23.640Z,12.78
2023-02-25T12:57:56.590Z,10.93
2023-02-25T13:00:26.166Z,8.61
2023-02-25T13:03:25.197Z,6.92
2023-02-25T13:05:57.656Z,7.17
2023-02-25T13:08:39.818Z,7.67
2023-02-25T13:11:22.384Z,7.68
2023-02-25T13:13:55.296Z,7.08
2023-02-25T13:16:33.406Z,5.07
2023-02-25T13:19:05.993Z,5.91
2023-02-25T13:21:35.535Z,5.12
2023-02-25T13:24:05.112Z,4.22
2023-02-25T13:26:50.467Z,4.59
2023-02-25T13:29:23.739Z,8.53
2023-02-25T13:32:09.282Z,10.42
2023-02-25T13:34:42.170Z,10.08
2023-02-25T13:37:11.643Z,7.76
2023-02-25T13:39:54.432Z,6.94
2023-02-25T13:42:29.856Z,5.61
2023-02-25T13:44:56.294Z,5.52
2023-02-25T13:47:32.169Z,5.13
2023-02-25T13:50:04.295Z,4.64
2023-02-25T13:52:51.027Z,4.64
2023-02-25T13:55:37.290Z,6.00
2023-02-25T13:58:27.141Z,6.10
2023-02-25T14:00:56.087Z,5.97
2023-02-25T14:03:25.776Z,6.58
2023-02-25T14:05:58.869Z,6.98
2023-02-25T14:08:51.901Z,6.88
2023-02-25T14:11:18.401Z,6.56
2023-02-25T14:14:03.884Z,6.22
2023-02-25T14:16:40.885Z,6.00
2023-02-25T14:19:26.893Z,6.53
2023-02-25T14:21:59.896Z,4.71
2023-02-25T14:24:29.529Z,4.90
2023-02-25T14:27:14.895Z,5.96
2023-02-25T14:30:00.176Z,7.81
2023-02-25T14:32:49.476Z,7.58
2023-02-25T14:35:29.470Z,7.87
2023-02-25T14:38:15.833Z,8.43
2023-02-25T14:41:02.586Z,10.68
2023-02-25T14:43:30.580Z,10.68
2023-02-25T14:45:57.181Z,8.20
2023-02-25T14:48:39.251Z,5.82
2023-02-25T14:51:11.954Z,4.70
2023-02-25T14:53:45.533Z,4.03
2023-02-25T14:56:46.277Z,3.26
2023-02-25T14:59:31.745Z,3.09
2023-02-25T15:02:11.226Z,2.73
2023-02-25T15:04:42.202Z,2.59
2023-02-25T15:07:17.894Z,2.58
2023-02-25T15:10:05.552Z,2.72
2023-02-25T15:12:32.319Z,2.61
2023-02-25T15:15:04.844Z,2.38
2023-02-25T15:17:31.628Z,1.97
2023-02-25T15:20:20.255Z,1.60
2023-02-25T15:23:04.247Z,1.92
2023-02-25T15:25:40.290Z,1.77
2023-02-25T15:28:25.635Z,1.37
2023-02-25T15:31:03.768Z,1.39
2023-02-25T15:33:37.428Z,1.32
2023-02-25T15:36:16.276Z,1.13
2023-02-25T15:38:55.569Z,0.99
2023-02-25T15:41:37.917Z,0.88
2023-02-25T15:44:10.711Z,0.84
2023-02-25T15:46:37.306Z,0.71
2023-02-25T15:49:03.960Z,0.67
2023-02-25T15:51:44.351Z,0.58
2023-02-25T15:54:29.617Z,0.54
2023-02-25T15:56:58.248Z,0.65
2023-02-25T15:59:44.879Z,0.68
2023-02-25T16:02:26.970Z,0.72
2023-02-25T16:04:53.965Z,0.79
2023-02-25T16:07:21.505Z,0.88
2023-02-25T16:09:49.951Z,0.74
2023-02-25T16:12:16.614Z,0.64
2023-02-25T16:14:43.293Z,0.53
2023-02-25T16:17:34.359Z,0.42
2023-02-25T16:20:07.181Z,0.29
2023-02-25T16:22:33.754Z,0.20
2023-02-25T16:25:01.931Z,0.09
2023-02-25T16:27:28.617Z,0.03
2023-02-25T16:30:14.366Z,0.03
2023-02-25T16:32:43.909Z,-0.08
2023-02-25T16:35:15.347Z,-0.17
2023-02-25T16:37:46.490Z,-0.21
2023-02-25T16:40:15.102Z,-0.32
2023-02-25T16:42:41.637Z,-0.39
2023-02-25T16:45:08.449Z,-0.53
2023-02-25T16:47:36.828Z,-0.53
2023-02-25T16:50:04.442Z,-0.57
2023-02-25T16:52:32.268Z,-0.57
2023-02-25T16:55:05.482Z,-0.61
2023-02-25T17:00:07.337Z,-0.63
2023-02-25T17:02:34.294Z,-0.70
2023-02-25T17:05:00.914Z,-0.84
2023-02-25T17:07:28.270Z,-0.78
2023-02-25T17:09:55.916Z,-0.78
2023-02-25T17:12:30.794Z,-0.90
2023-02-25T17:14:58.554Z,-0.99
2023-02-25T17:17:30.004Z,-1.04
2023-02-25T17:19:57.116Z,-1.08
2023-02-25T17:22:24.156Z,-1.09
2023-02-25T17:24:51.399Z,-1.20
2023-02-25T17:27:18.386Z,-1.27
2023-02-25T17:29:45.476Z,-1.24
2023-02-25T17:32:14.404Z,-1.25
2023-02-25T17:34:41.125Z,-1.28
2023-02-25T17:37:12.820Z,-1.20
2023-02-25T17:39:39.880Z,-1.28
2023-02-25T17:42:26.925Z,-1.31
2023-02-25T17:44:56.797Z,-1.23
2023-02-25T17:47:27.182Z,-1.20
2023-02-25T17:49:54.501Z,-1.24
2023-02-25T17:52:28.471Z,-1.28
